createdAt,value
2024-04-23T00:02:05.998Z,96768.66
2024-04-23T00:04:32.751Z,96771.13
2024-04-23T00:07:00.667Z,96767.09
2024-04-23T00:09:27.741Z,96758.00
2024-04-23T00:11:54.338Z,96751.34
2024-04-23T00:14:20.985Z,96756.22
2024-04-23T00:16:57.516Z,96762.25
2024-04-23T00:19:24.076Z,96756.41
2024-04-23T00:21:50.647Z,96752.78
2024-04-23T00:24:17.199Z,96748.34
2024-04-23T00:27:00.485Z,96750.38
2024-04-23T00:29:27.812Z,96747.56
2024-04-23T00:31:54.785Z,96742.91
2024-04-23T00:34:21.519Z,96741.91
2024-04-23T00:36:54.980Z,96732.06
2024-04-23T00:39:21.793Z,96732.25
2024-04-23T00:41:48.467Z,96730.03
2024-04-23T00:44:15.166Z,96725.44
2024-04-23T00:46:41.953Z,96732.84
2024-04-23T00:49:10.178Z,96722.81
2024-04-23T00:51:37.251Z,96711.91
2024-04-23T00:54:03.992Z,96709.94
2024-04-23T00:56:30.585Z,96717.16
2024-04-23T00:58:58.218Z,96723.19
2024-04-23T01:01:24.841Z,96714.16
2024-04-23T01:03:51.652Z,96728.84
2024-04-23T01:06:18.348Z,96734.09
2024-04-23T01:08:44.893Z,96736.72
2024-04-23T01:11:11.733Z,96744.97
2024-04-23T01:13:38.439Z,96740.31
2024-04-23T01:16:05.420Z,96736.50
2024-04-23T01:18:32.506Z,96744.56
2024-04-23T01:21:01.908Z,96737.31
2024-04-23T01:23:32.644Z,96743.13
2024-04-23T01:26:09.582Z,96736.72
2024-04-23T01:28:40.204Z,96731.88
2024-04-23T01:31:08.326Z,96729.06
2024-04-23T01:33:36.181Z,96732.25
2024-04-23T01:36:04.362Z,96725.84
2024-04-23T01:38:32.644Z,96718.19
2024-04-23T01:40:59.957Z,96716.78
2024-04-23T01:43:27.175Z,96717.56
2024-04-23T01:45:54.391Z,96720.19
2024-04-23T01:48:21.038Z,96721.41
2024-04-23T01:50:47.628Z,96717.38
2024-04-23T01:53:14.516Z,96708.31
2024-04-23T01:55:41.356Z,96719.19
2024-04-23T01:58:07.941Z,96710.53
2024-04-23T02:00:37.625Z,96701.91
2024-04-23T02:03:05.162Z,96708.34
2024-04-23T02:05:31.952Z,96705.50
2024-04-23T02:07:58.599Z,96706.72
2024-04-23T02:10:26.786Z,96705.91
2024-04-23T02:12:53.772Z,96705.50
2024-04-23T02:15:20.584Z,96709.13
2024-04-23T02:17:47.217Z,96706.69
2024-04-23T02:20:14.097Z,96707.50
2024-04-23T02:22:40.650Z,96703.88
2024-04-23T02:25:07.177Z,96699.84
2024-04-23T02:27:33.927Z,96697.25
2024-04-23T02:30:01.110Z,96702.47
2024-04-23T02:32:27.921Z,96691.81
2024-04-23T02:34:54.487Z,96689.00
2024-04-23T02:37:21.185Z,96682.34
2024-04-23T02:39:47.737Z,96680.94
2024-04-23T02:42:14.440Z,96683.97
2024-04-23T02:44:41.086Z,96689.00
2024-04-23T02:47:07.701Z,96685.56
2024-04-23T02:49:34.295Z,96687.56
2024-04-23T02:52:01.075Z,96679.16
2024-04-23T02:54:27.702Z,96684.16
2024-04-23T02:56:54.724Z,96674.09
2024-04-23T02:59:22.083Z,96676.50
2024-04-23T03:01:49.162Z,96667.47
2024-04-23T03:04:16.036Z,96669.09
2024-04-23T03:06:42.752Z,96663.66
2024-04-23T03:09:09.430Z,96665.88
2024-04-23T03:11:36.094Z,96668.47
2024-04-23T03:14:02.904Z,96664.03
2024-04-23T03:16:29.591Z,96659.22
2024-04-23T03:18:56.133Z,96649.97
2024-04-23T03:21:22.707Z,96656.81
2024-04-23T03:23:49.200Z,96658.63
2024-04-23T03:26:16.010Z,96659.44
2024-04-23T03:28:42.567Z,96654.38
2024-04-23T03:31:09.307Z,96647.19
2024-04-23T03:33:35.987Z,96647.78
2024-04-23T03:36:02.603Z,96648.56
2024-04-23T03:38:29.135Z,96651.00
2024-04-23T03:40:56.593Z,96654.19
2024-04-23T03:43:23.173Z,96639.94
2024-04-23T03:45:49.722Z,96651.38
2024-04-23T03:48:16.362Z,96654.38
2024-04-23T03:50:42.994Z,96657.63
2024-04-23T03:53:09.517Z,96648.75
2024-04-23T03:55:36.225Z,96648.56
2024-04-23T03:58:03.566Z,96644.94
2024-04-23T04:00:30.288Z,96646.94
2024-04-23T04:03:15.635Z,96643.75
2024-04-23T04:06:00.883Z,96641.28
2024-04-23T04:08:27.615Z,96639.50
2024-04-23T04:10:54.495Z,96646.53
2024-04-23T04:13:23.967Z,96645.34
2024-04-23T04:15:51.422Z,96640.13
2024-04-23T04:18:21.297Z,96648.75
2024-04-23T04:20:47.973Z,96642.13
2024-04-23T04:23:14.890Z,96649.16
2024-04-23T04:25:41.755Z,96648.56
2024-04-23T04:28:08.507Z,96644.31
2024-04-23T04:30:35.075Z,96642.94
2024-04-23T04:33:01.968Z,96649.56
2024-04-23T04:35:28.977Z,96648.38
2024-04-23T04:37:56.531Z,96648.75
2024-04-23T04:40:23.284Z,96651.19
2024-04-23T04:42:50.036Z,96650.59
2024-04-23T04:45:16.587Z,96660.03
2024-04-23T04:47:43.508Z,96655.78
2024-04-23T04:50:10.558Z,96653.56
2024-04-23T04:52:37.581Z,96651.56
2024-04-23T04:55:04.729Z,96654.75
2024-04-23T04:57:34.099Z,96657.56
2024-04-23T05:00:00.754Z,96650.72
2024-04-23T05:02:27.756Z,96651.72
2024-04-23T05:04:55.619Z,96656.97
2024-04-23T05:07:22.672Z,96650.56
2024-04-23T05:09:49.273Z,96656.75
2024-04-23T05:12:18.006Z,96649.72
2024-04-23T05:14:45.071Z,96653.34
2024-04-23T05:17:12.201Z,96647.94
2024-04-23T05:19:39.369Z,96650.56
2024-04-23T05:22:06.078Z,96653.19
2024-04-23T05:24:32.598Z,96651.59
2024-04-23T05:26:59.418Z,96644.13
2024-04-23T05:29:26.213Z,96639.13
2024-04-23T05:32:11.526Z,96642.34
2024-04-23T05:34:38.393Z,96642.94
2024-04-23T05:37:04.972Z,96644.75
2024-04-23T05:39:31.767Z,96649.97
2024-04-23T05:41:58.498Z,96643.72
2024-04-23T05:44:25.030Z,96641.94
2024-04-23T05:46:51.991Z,96641.94
2024-04-23T05:49:37.715Z,96647.16
2024-04-23T05:52:29.753Z,96647.97
2024-04-23T05:55:16.340Z,96652.41
2024-04-23T05:57:42.880Z,96657.81
2024-04-23T06:00:09.977Z,96657.63
2024-04-23T06:02:36.710Z,96652.41
2024-04-23T06:05:03.346Z,96658.44
2024-04-23T06:07:30.241Z,96659.66
2024-04-23T06:09:56.797Z,96668.69
2024-04-23T06:12:23.291Z,96666.88
2024-04-23T06:14:51.631Z,96666.09
2024-04-23T06:17:31.382Z,96662.84
2024-04-23T06:20:05.291Z,96663.47
2024-04-23T06:22:32.899Z,96668.28
2024-04-23T06:24:59.483Z,96675.72
2024-04-23T06:27:26.356Z,96669.84
2024-04-23T06:29:52.839Z,96673.50
2024-04-23T06:32:20.130Z,96660.63
2024-04-23T06:34:47.528Z,96669.69
2024-04-23T06:37:14.799Z,96676.13
2024-04-23T06:39:42.797Z,96666.06
2024-04-23T06:42:09.662Z,96662.84
2024-04-23T06:44:36.229Z,96672.69
2024-04-23T06:47:02.996Z,96665.88
2024-04-23T06:49:30.062Z,96669.28
2024-04-23T06:51:57.202Z,96673.69
2024-04-23T06:54:24.096Z,96675.09
2024-04-23T06:56:51.081Z,96670.09
2024-04-23T06:59:17.628Z,96674.91
2024-04-23T07:01:45.235Z,96666.84
2024-04-23T07:04:12.443Z,96670.91
2024-04-23T07:06:39.333Z,96670.28
2024-04-23T07:09:06.053Z,96664.25
2024-04-23T07:11:32.726Z,96660.03
2024-04-23T07:13:59.469Z,96671.28
2024-04-23T07:16:26.315Z,96669.88
2024-04-23T07:18:56.932Z,96660.84
2024-04-23T07:21:28.663Z,96662.22
2024-04-23T07:23:55.464Z,96655.19
2024-04-23T07:26:23.637Z,96659.84
2024-04-23T07:28:50.538Z,96664.03
2024-04-23T07:31:17.168Z,96654.81
2024-04-23T07:33:44.061Z,96660.44
2024-04-23T07:36:10.936Z,96654.81
2024-04-23T07:38:37.892Z,96653.00
2024-04-23T07:41:04.860Z,96660.44
2024-04-23T07:43:31.498Z,96648.75
2024-04-23T07:45:58.163Z,96650.16
2024-04-23T07:48:25.070Z,96647.19
2024-04-23T07:50:52.160Z,96643.53
2024-04-23T07:53:18.943Z,96648.16
2024-04-23T07:55:45.790Z,96646.34
2024-04-23T07:58:12.387Z,96644.72
2024-04-23T08:00:38.990Z,96640.84
2024-04-23T08:03:11.074Z,96644.06
2024-04-23T08:05:38.483Z,96646.28
2024-04-23T08:08:05.504Z,96641.13
2024-04-23T08:10:32.438Z,96649.56
2024-04-23T08:12:59.271Z,96651.56
2024-04-23T08:15:25.845Z,96644.13
2024-04-23T08:17:53.830Z,96645.94
2024-04-23T08:20:21.093Z,96643.53
2024-04-23T08:22:47.695Z,96640.06
2024-04-23T08:25:18.098Z,96634.81
2024-04-23T08:27:47.794Z,96636.63
2024-04-23T08:30:14.722Z,96639.25
2024-04-23T08:32:41.708Z,96637.03
2024-04-23T08:35:08.365Z,96633.41
2024-04-23T08:37:35.162Z,96636.63
2024-04-23T08:40:01.786Z,96634.81
2024-04-23T08:42:31.390Z,96637.63
2024-04-23T08:44:58.261Z,96637.03
2024-04-23T08:47:25.165Z,96637.94
2024-04-23T08:49:52.029Z,96645.34
2024-04-23T08:52:18.926Z,96640.31
2024-04-23T08:54:45.504Z,96642.19
2024-04-23T08:57:14.472Z,96640.19
2024-04-23T08:59:41.321Z,96631.88
2024-04-23T09:02:09.488Z,96631.78
2024-04-23T09:04:36.965Z,96635.16
2024-04-23T09:07:04.027Z,96633.19
2024-04-23T09:09:30.756Z,96643.69
2024-04-23T09:12:02.065Z,96642.41
2024-04-23T09:14:28.636Z,96638.28
2024-04-23T09:16:58.351Z,96637.72
2024-04-23T09:19:25.632Z,96636.03
2024-04-23T09:21:52.196Z,96633.44
2024-04-23T09:24:25.202Z,96630.88
2024-04-23T09:26:52.009Z,96635.94
2024-04-23T09:29:18.790Z,96633.94
2024-04-23T09:31:45.911Z,96631.78
2024-04-23T09:34:12.683Z,96633.84
2024-04-23T09:36:40.309Z,96630.19
2024-04-23T09:39:15.145Z,96632.19
2024-04-23T09:41:41.961Z,96627.34
2024-04-23T09:44:11.729Z,96625.47
2024-04-23T09:46:39.302Z,96620.03
2024-04-23T09:49:06.305Z,96620.34
2024-04-23T09:51:33.114Z,96614.41
2024-04-23T09:54:02.989Z,96607.41
2024-04-23T09:56:29.640Z,96612.63
2024-04-23T09:58:56.205Z,96613.31
2024-04-23T10:01:25.568Z,96608.19
2024-04-23T10:03:55.491Z,96607.22
2024-04-23T10:06:24.717Z,96606.47
2024-04-23T10:09:07.034Z,96615.03
2024-04-23T10:11:33.942Z,96610.44
2024-04-23T10:14:08.800Z,96608.41
2024-04-23T10:16:44.845Z,96607.38
2024-04-23T10:19:12.028Z,96604.53
2024-04-23T10:21:41.111Z,96604.94
2024-04-23T10:24:11.457Z,96603.53
2024-04-23T10:26:43.667Z,96607.16
2024-04-23T10:29:11.130Z,96599.13
2024-04-23T10:31:38.276Z,96601.69
2024-04-23T10:34:05.353Z,96604.94
2024-04-23T10:36:32.974Z,96599.81
2024-04-23T10:39:00.403Z,96597.53
2024-04-23T10:41:27.768Z,96602.75
2024-04-23T10:43:55.011Z,96593.84
2024-04-23T10:46:24.623Z,96599.66
2024-04-23T10:48:57.755Z,96595.84
2024-04-23T10:51:24.934Z,96597.13
2024-04-23T10:53:54.610Z,96594.19
2024-04-23T10:56:22.223Z,96590.56
2024-04-23T10:58:48.804Z,96589.09
2024-04-23T11:01:24.087Z,96585.03
2024-04-23T11:03:56.034Z,96584.78
2024-04-23T11:06:23.013Z,96583.88
2024-04-23T11:08:52.433Z,96582.63
2024-04-23T11:11:24.075Z,96582.28
2024-04-23T11:13:57.534Z,96574.78
2024-04-23T11:16:24.316Z,96580.44
2024-04-23T11:18:54.652Z,96577.31
2024-04-23T11:21:25.218Z,96583.22
2024-04-23T11:23:52.078Z,96581.25
2024-04-23T11:26:21.303Z,96571.03
2024-04-23T11:28:48.293Z,96567.13
2024-04-23T11:31:14.992Z,96571.06
2024-04-23T11:33:42.132Z,96574.19
2024-04-23T11:36:12.845Z,96577.59
2024-04-23T11:38:43.834Z,96580.16
2024-04-23T11:41:15.787Z,96573.75
2024-04-23T11:43:45.440Z,96575.47
2024-04-23T11:46:15.784Z,96567.97
2024-04-23T11:48:42.934Z,96565.72
2024-04-23T11:51:09.898Z,96556.41
2024-04-23T11:53:36.398Z,96561.13
2024-04-23T11:56:03.316Z,96555.06
2024-04-23T11:58:29.942Z,96553.28
2024-04-23T12:00:56.520Z,96549.97
2024-04-23T12:03:25.128Z,96553.44
2024-04-23T12:05:52.139Z,96553.28
2024-04-23T12:08:18.868Z,96548.41
2024-04-23T12:10:45.915Z,96551.53
2024-04-23T12:13:21.632Z,96549.97
2024-04-23T12:15:50.284Z,96548.63
2024-04-23T12:18:18.404Z,96541.91
2024-04-23T12:20:45.948Z,96541.19
2024-04-23T12:23:13.228Z,96539.13
2024-04-23T12:25:43.321Z,96543.97
2024-04-23T12:28:12.963Z,96538.34
2024-04-23T12:30:43.955Z,96539.81
2024-04-23T12:33:11.615Z,96530.19
2024-04-23T12:35:38.837Z,96538.72
2024-04-23T12:38:07.989Z,96534.94
2024-04-23T12:40:35.608Z,96535.28
2024-04-23T12:43:07.957Z,96537.88
2024-04-23T12:45:34.920Z,96536.00
2024-04-23T12:48:02.637Z,96535.94
2024-04-23T12:50:30.298Z,96529.09
2024-04-23T12:52:56.993Z,96523.69
2024-04-23T12:55:23.850Z,96523.75
2024-04-23T12:57:50.380Z,96525.19
2024-04-23T13:00:17.147Z,96522.47
2024-04-23T13:02:43.713Z,96517.13
2024-04-23T13:05:10.822Z,96520.47
2024-04-23T13:07:37.567Z,96527.81
2024-04-23T13:10:04.472Z,96513.78
2024-04-23T13:12:31.330Z,96512.09
2024-04-23T13:14:57.923Z,96509.63
2024-04-23T13:17:24.969Z,96512.69
2024-04-23T13:19:57.257Z,96505.09
2024-04-23T13:22:27.672Z,96504.00
2024-04-23T13:24:54.258Z,96506.78
2024-04-23T13:27:21.060Z,96502.13
2024-04-23T13:29:48.043Z,96495.91
2024-04-23T13:32:15.182Z,96491.09
2024-04-23T13:34:42.023Z,96493.72
2024-04-23T13:37:08.624Z,96494.84
2024-04-23T13:39:35.392Z,96489.59
2024-04-23T13:42:02.433Z,96482.78
2024-04-23T13:44:30.598Z,96478.69
2024-04-23T13:46:57.767Z,96476.34
2024-04-23T13:49:24.476Z,96477.16
2024-04-23T13:51:51.366Z,96480.06
2024-04-23T13:54:17.895Z,96474.97
2024-04-23T13:56:44.444Z,96469.72
2024-04-23T13:59:12.578Z,96463.88
2024-04-23T14:01:41.590Z,96471.63
2024-04-23T14:04:08.804Z,96459.34
2024-04-23T14:06:35.689Z,96465.34
2024-04-23T14:09:02.185Z,96462.56
2024-04-23T14:11:31.271Z,96470.59
2024-04-23T14:13:58.047Z,96460.16
2024-04-23T14:16:25.400Z,96460.91
2024-04-23T14:18:53.665Z,96453.81
2024-04-23T14:21:20.994Z,96447.19
2024-04-23T14:23:47.626Z,96454.63
2024-04-23T14:26:15.136Z,96447.91
2024-04-23T14:28:42.024Z,96448.97
2024-04-23T14:31:08.869Z,96452.28
2024-04-23T14:33:35.424Z,96441.31
2024-04-23T14:36:05.856Z,96440.53
2024-04-23T14:38:33.472Z,96442.78
2024-04-23T14:41:06.855Z,96448.28
2024-04-23T14:43:34.628Z,96450.19
2024-04-23T14:46:08.746Z,96446.75
2024-04-23T14:48:35.411Z,96446.53
2024-04-23T14:51:02.000Z,96445.50
2024-04-23T14:53:28.776Z,96431.50
2024-04-23T14:55:59.071Z,96432.66
2024-04-23T14:58:25.972Z,96428.03
2024-04-23T15:00:52.694Z,96417.94
2024-04-23T15:03:19.553Z,96425.81
2024-04-23T15:05:46.160Z,96432.88
2024-04-23T15:08:13.583Z,96434.63
2024-04-23T15:10:50.909Z,96431.84
2024-04-23T15:13:22.922Z,96431.75
2024-04-23T15:15:58.214Z,96438.47
2024-04-23T15:18:24.876Z,96436.28
2024-04-23T15:20:51.516Z,96430.34
2024-04-23T15:23:18.319Z,96430.78
2024-04-23T15:25:45.086Z,96429.19
2024-04-23T15:28:11.671Z,96431.94
2024-04-23T15:30:38.363Z,96428.78
2024-04-23T15:33:05.396Z,96430.72
2024-04-23T15:35:32.783Z,96435.88
2024-04-23T15:37:59.667Z,96427.63
2024-04-23T15:40:26.435Z,96433.13
2024-04-23T15:42:52.973Z,96432.44
2024-04-23T15:45:20.269Z,96429.47
2024-04-23T15:47:47.858Z,96429.09
2024-04-23T15:50:16.515Z,96427.84
2024-04-23T15:52:43.268Z,96425.22
2024-04-23T15:55:10.300Z,96424.56
2024-04-23T15:57:36.871Z,96427.03
2024-04-23T16:00:03.776Z,96424.16
2024-04-23T16:02:33.336Z,96430.19
2024-04-23T16:05:00.303Z,96424.66
2024-04-23T16:07:29.095Z,96424.38
2024-04-23T16:09:56.140Z,96419.19
2024-04-23T16:12:23.033Z,96416.97
2024-04-23T16:14:51.726Z,96408.31
2024-04-23T16:17:18.794Z,96402.25
2024-04-23T16:19:45.486Z,96403.66
2024-04-23T16:22:12.084Z,96391.00
2024-04-23T16:24:39.290Z,96397.78
2024-04-23T16:27:05.794Z,96404.25
2024-04-23T16:29:32.682Z,96404.25
2024-04-23T16:31:59.734Z,96399.19
2024-04-23T16:34:26.284Z,96400.13
2024-04-23T16:36:53.108Z,96405.81
2024-04-23T16:39:21.539Z,96405.13
2024-04-23T16:41:49.614Z,96401.00
2024-04-23T16:44:16.322Z,96401.59
2024-04-23T16:46:43.790Z,96403.72
2024-04-23T16:49:10.350Z,96406.78
2024-04-23T16:51:40.002Z,96406.56
2024-04-23T16:54:08.608Z,96412.53
2024-04-23T16:56:35.749Z,96408.03
2024-04-23T16:59:02.512Z,96412.19
2024-04-23T17:01:29.361Z,96414.44
2024-04-23T17:03:55.996Z,96416.13
2024-04-23T17:06:23.186Z,96412.47
2024-04-23T17:08:50.431Z,96420.28
2024-04-23T17:11:17.108Z,96419.50
2024-04-23T17:13:44.878Z,96410.84
2024-04-23T17:16:15.150Z,96412.13
2024-04-23T17:18:42.250Z,96410.06
2024-04-23T17:21:15.928Z,96404.09
2024-04-23T17:23:46.229Z,96408.78
2024-04-23T17:26:13.601Z,96399.56
2024-04-23T17:28:40.736Z,96406.84
2024-04-23T17:31:08.560Z,96399.31
2024-04-23T17:33:36.300Z,96397.09
2024-04-23T17:36:03.138Z,96399.50
2024-04-23T17:38:29.801Z,96393.38
2024-04-23T17:40:57.131Z,96397.38
2024-04-23T17:43:24.525Z,96393.00
2024-04-23T17:45:51.272Z,96389.56
2024-04-23T17:48:17.984Z,96392.06
2024-04-23T17:50:44.859Z,96384.78
2024-04-23T17:53:11.474Z,96392.72
2024-04-23T17:55:38.839Z,96389.06
2024-04-23T17:58:05.643Z,96390.75
2024-04-23T18:00:32.314Z,96386.59
2024-04-23T18:02:59.381Z,96390.16
2024-04-23T18:05:26.142Z,96391.34
2024-04-23T18:07:53.006Z,96392.72
2024-04-23T18:10:20.121Z,96395.19
2024-04-23T18:12:47.550Z,96394.25
2024-04-23T18:15:14.384Z,96397.34
2024-04-23T18:17:41.262Z,96398.81
2024-04-23T18:20:08.354Z,96401.72
2024-04-23T18:22:36.924Z,96402.94
2024-04-23T18:25:03.934Z,96403.81
2024-04-23T18:27:30.620Z,96407.63
2024-04-23T18:29:57.225Z,96404.34
2024-04-23T18:32:24.051Z,96409.00
2024-04-23T18:34:50.887Z,96414.81
2024-04-23T18:37:17.493Z,96404.19
2024-04-23T18:39:44.360Z,96404.34
2024-04-23T18:42:11.358Z,96405.78
2024-04-23T18:44:38.366Z,96403.16
2024-04-23T18:47:05.174Z,96404.78
2024-04-23T18:49:31.809Z,96401.41
2024-04-23T18:51:58.430Z,96401.06
2024-04-23T18:54:25.311Z,96404.03
2024-04-23T18:56:53.768Z,96404.03
2024-04-23T18:59:20.523Z,96409.81
2024-04-23T19:01:47.483Z,96410.84
2024-04-23T19:04:14.312Z,96412.88
2024-04-23T19:06:41.730Z,96419.03
2024-04-23T19:09:08.346Z,96415.84
2024-04-23T19:11:35.210Z,96415.63
2024-04-23T19:14:11.633Z,96413.88
2024-04-23T19:16:44.377Z,96404.47
2024-04-23T19:19:11.556Z,96406.81
2024-04-23T19:21:38.415Z,96413.72
2024-04-23T19:24:06.084Z,96409.44
2024-04-23T19:26:32.642Z,96411.47
2024-04-23T19:28:59.320Z,96403.75
2024-04-23T19:31:26.141Z,96403.19
2024-04-23T19:33:52.833Z,96399.38
2024-04-23T19:36:19.627Z,96409.81
2024-04-23T19:38:46.668Z,96406.13
2024-04-23T19:41:14.015Z,96402.16
2024-04-23T19:43:50.974Z,96397.72
2024-04-23T19:46:20.099Z,96400.84
2024-04-23T19:48:48.532Z,96395.59
2024-04-23T19:51:16.690Z,96382.06
2024-04-23T19:53:46.090Z,96394.09
2024-04-23T19:56:27.312Z,96392.53
2024-04-23T19:58:54.787Z,96391.53
2024-04-23T20:01:21.488Z,96386.44
2024-04-23T20:03:48.177Z,96388.31
2024-04-23T20:06:14.847Z,96387.78
2024-04-23T20:08:42.749Z,96389.97
2024-04-23T20:11:12.650Z,96383.28
2024-04-23T20:13:39.421Z,96384.31
2024-04-23T20:16:06.156Z,96382.56
2024-04-23T20:18:33.020Z,96380.38
2024-04-23T20:20:59.707Z,96379.72
2024-04-23T20:23:26.258Z,96382.91
2024-04-23T20:25:53.058Z,96378.69
2024-04-23T20:28:19.799Z,96378.53
2024-04-23T20:30:46.358Z,96384.53
2024-04-23T20:33:13.167Z,96377.53
2024-04-23T20:35:39.754Z,96376.13
2024-04-23T20:38:06.712Z,96376.94
2024-04-23T20:40:34.267Z,96378.91
2024-04-23T20:43:00.832Z,96369.22
2024-04-23T20:45:27.630Z,96369.66
2024-04-23T20:47:55.676Z,96375.34
2024-04-23T20:50:22.662Z,96368.06
2024-04-23T20:52:49.537Z,96364.22
2024-04-23T20:55:16.297Z,96367.97
2024-04-23T20:57:43.066Z,96371.13
2024-04-23T21:00:09.980Z,96368.13
2024-04-23T21:02:36.628Z,96371.19
2024-04-23T21:05:03.392Z,96368.13
2024-04-23T21:07:29.994Z,96369.22
2024-04-23T21:09:57.191Z,96364.41
2024-04-23T21:12:24.051Z,96368.28
2024-04-23T21:14:50.744Z,96363.03
2024-04-23T21:17:17.295Z,96361.28
2024-04-23T21:19:46.746Z,96357.78
2024-04-23T21:22:13.805Z,96358.81
2024-04-23T21:24:40.577Z,96361.22
2024-04-23T21:27:07.272Z,96354.16
2024-04-23T21:29:33.984Z,96348.38
2024-04-23T21:32:03.620Z,96355.13
2024-04-23T21:34:30.241Z,96351.38
2024-04-23T21:36:56.906Z,96344.53
2024-04-23T21:39:23.548Z,96343.09
2024-04-23T21:41:50.284Z,96341.84
2024-04-23T21:44:17.121Z,96338.13
2024-04-23T21:46:43.734Z,96343.00
2024-04-23T21:49:10.314Z,96345.78
2024-04-23T21:51:37.046Z,96338.13
2024-04-23T21:54:04.135Z,96342.13
2024-04-23T21:56:30.881Z,96340.22
2024-04-23T21:58:57.564Z,96336.78
2024-04-23T22:01:24.269Z,96336.72
2024-04-23T22:03:51.828Z,96331.34
2024-04-23T22:06:18.885Z,96329.38
2024-04-23T22:08:45.564Z,96326.75
2024-04-23T22:11:12.336Z,96334.91
2024-04-23T22:13:39.021Z,96335.03
2024-04-23T22:16:06.074Z,96334.47
2024-04-23T22:18:32.878Z,96333.59
2024-04-23T22:20:59.684Z,96332.00
2024-04-23T22:23:26.241Z,96331.66
2024-04-23T22:25:53.114Z,96332.88
2024-04-23T22:28:19.881Z,96327.97
2024-04-23T22:30:46.682Z,96316.16
2024-04-23T22:33:13.295Z,96323.47
2024-04-23T22:35:40.120Z,96314.53
2024-04-23T22:38:06.758Z,96319.31
2024-04-23T22:40:33.579Z,96310.31
2024-04-23T22:43:00.217Z,96313.53
2024-04-23T22:45:26.985Z,96305.28
2024-04-23T22:47:53.599Z,96305.94
2024-04-23T22:50:20.485Z,96304.06
2024-04-23T22:52:50.163Z,96302.09
2024-04-23T22:55:16.757Z,96301.72
2024-04-23T22:57:43.458Z,96300.91
2024-04-23T23:00:10.504Z,96297.88
2024-04-23T23:02:37.104Z,96292.25
2024-04-23T23:05:04.070Z,96290.22
2024-04-23T23:07:30.694Z,96296.47
2024-04-23T23:09:57.291Z,96285.78
2024-04-23T23:12:23.954Z,96286.44
2024-04-23T23:14:50.901Z,96289.28
2024-04-23T23:17:20.786Z,96280.34
2024-04-23T23:19:47.449Z,96283.53
2024-04-23T23:22:14.112Z,96279.69
2024-04-23T23:24:40.833Z,96282.91
2024-04-23T23:27:07.393Z,96280.34
2024-04-23T23:29:34.130Z,96279.38
2024-04-23T23:32:00.865Z,96277.78
2024-04-23T23:34:27.432Z,96278.38
2024-04-23T23:36:53.978Z,96267.69
2024-04-23T23:39:20.543Z,96268.47
2024-04-23T23:41:47.214Z,96262.88
2024-04-23T23:44:13.950Z,96261.63
2024-04-23T23:46:40.656Z,96261.63
2024-04-23T23:49:07.440Z,96258.59
2024-04-23T23:51:34.035Z,96255.09
2024-04-23T23:54:00.783Z,96248.91
2024-04-23T23:56:27.435Z,96239.66
2024-04-23T23:58:54.017Z,96241.66
